createdAt,value
2022-07-29T00:00:13.808Z,57.91
2022-07-29T00:03:16.801Z,56.02
2022-07-29T00:06:19.778Z,56.04
2022-07-29T00:09:22.625Z,56.58
2022-07-29T00:12:27.040Z,56.69
2022-07-29T00:15:29.922Z,56.70
2022-07-29T00:18:33.193Z,56.38
2022-07-29T00:21:36.141Z,56.30
2022-07-29T00:24:38.641Z,56.35
2022-07-29T00:27:41.611Z,56.44
2022-07-29T00:30:44.381Z,56.01
2022-07-29T00:33:47.105Z,55.06
2022-07-29T00:36:49.565Z,55.08
2022-07-29T00:39:52.333Z,54.98
2022-07-29T00:42:54.886Z,55.42
2022-07-29T00:45:57.628Z,56.51
2022-07-29T00:49:00.316Z,56.77
2022-07-29T00:52:06.904Z,56.19
2022-07-29T00:55:12.580Z,57.02
2022-07-29T00:58:16.047Z,56.72
2022-07-29T01:01:18.647Z,57.04
2022-07-29T01:04:22.670Z,56.78
2022-07-29T01:07:26.871Z,57.15
2022-07-29T01:10:30.866Z,57.34
2022-07-29T01:13:34.279Z,57.49
2022-07-29T01:16:47.211Z,57.69
2022-07-29T01:20:08.241Z,57.54
2022-07-29T01:23:32.849Z,58.01
2022-07-29T01:26:55.496Z,58.43
2022-07-29T01:30:00.764Z,58.40
2022-07-29T01:33:09.596Z,57.97
2022-07-29T01:36:19.680Z,58.99
2022-07-29T01:39:31.007Z,58.88
2022-07-29T01:42:39.566Z,58.87
2022-07-29T01:45:46.094Z,59.16
2022-07-29T01:48:54.326Z,60.11
2022-07-29T01:52:06.741Z,60.09
2022-07-29T01:55:15.038Z,60.57
2022-07-29T01:58:20.092Z,60.94
2022-07-29T02:01:25.938Z,60.82
2022-07-29T02:04:30.500Z,61.40
2022-07-29T02:07:34.817Z,61.65
2022-07-29T02:10:40.956Z,62.27
2022-07-29T02:13:45.311Z,62.52
2022-07-29T02:16:51.258Z,62.61
2022-07-29T02:19:58.375Z,62.99
2022-07-29T02:23:05.390Z,62.91
2022-07-29T02:26:09.464Z,63.96
2022-07-29T02:29:16.239Z,63.12
2022-07-29T02:32:20.358Z,62.67
2022-07-29T02:35:23.959Z,62.10
2022-07-29T02:38:47.677Z,61.95
2022-07-29T02:41:58.954Z,62.02
2022-07-29T02:45:02.645Z,63.22
2022-07-29T02:48:11.091Z,62.57
2022-07-29T02:51:43.607Z,62.79
2022-07-29T02:54:48.248Z,63.20
2022-07-29T02:58:00.932Z,63.25
2022-07-29T03:01:20.917Z,63.53
2022-07-29T03:04:26.773Z,64.00
2022-07-29T03:07:30.969Z,64.74
2022-07-29T03:10:34.878Z,64.40
2022-07-29T03:13:38.563Z,64.71
2022-07-29T03:16:41.680Z,65.62
2022-07-29T03:19:44.970Z,65.08
2022-07-29T03:22:50.030Z,64.74
2022-07-29T03:25:53.684Z,65.07
2022-07-29T03:28:57.100Z,65.05
2022-07-29T03:32:00.011Z,65.08
2022-07-29T03:35:03.152Z,65.63
2022-07-29T03:38:06.045Z,65.82
2022-07-29T03:41:11.753Z,65.93
2022-07-29T03:44:16.331Z,66.28
2022-07-29T03:47:26.997Z,66.51
2022-07-29T03:50:47.147Z,66.69
2022-07-29T03:53:49.663Z,67.09
2022-07-29T03:56:54.345Z,68.16
2022-07-29T03:59:57.668Z,68.61
2022-07-29T04:03:01.141Z,68.01
2022-07-29T04:06:08.996Z,68.97
2022-07-29T04:09:11.926Z,68.84
2022-07-29T04:12:14.762Z,68.45
2022-07-29T04:15:17.277Z,68.22
2022-07-29T04:18:20.031Z,68.13
2022-07-29T04:21:22.833Z,69.79
2022-07-29T04:24:25.751Z,68.87
2022-07-29T04:27:28.277Z,70.22
2022-07-29T04:30:34.304Z,68.66
2022-07-29T04:33:36.808Z,69.27
2022-07-29T04:36:39.599Z,68.79
2022-07-29T04:39:42.032Z,69.34
2022-07-29T04:42:46.530Z,68.26
2022-07-29T04:45:50.747Z,68.32
2022-07-29T04:48:53.640Z,68.81
2022-07-29T04:51:56.171Z,67.63
2022-07-29T04:54:58.964Z,67.35
2022-07-29T04:58:01.552Z,67.27
2022-07-29T05:01:05.532Z,65.99
2022-07-29T05:04:08.231Z,66.09
2022-07-29T05:07:11.028Z,65.94
2022-07-29T05:10:13.559Z,65.48
2022-07-29T05:13:17.101Z,64.55
2022-07-29T05:16:19.676Z,64.43
2022-07-29T05:19:22.467Z,64.11
2022-07-29T05:22:24.917Z,63.96
2022-07-29T05:25:43.207Z,63.67
2022-07-29T05:28:47.046Z,63.49
2022-07-29T05:31:49.909Z,62.38
2022-07-29T05:34:52.426Z,62.88
2022-07-29T05:37:55.225Z,62.63
2022-07-29T05:40:59.863Z,61.36
2022-07-29T05:44:03.189Z,60.64
2022-07-29T05:47:07.452Z,61.14
2022-07-29T05:50:11.291Z,61.12
2022-07-29T05:53:20.081Z,62.88
2022-07-29T05:56:23.328Z,62.57
2022-07-29T05:59:30.185Z,61.54
2022-07-29T06:02:33.365Z,61.66
2022-07-29T06:05:36.490Z,61.03
2022-07-29T06:08:39.531Z,60.37
2022-07-29T06:11:42.599Z,59.79
2022-07-29T06:14:45.131Z,60.59
2022-07-29T06:17:59.194Z,60.55
2022-07-29T06:21:09.633Z,57.54
2022-07-29T06:24:14.046Z,55.44
2022-07-29T06:27:17.329Z,54.43
2022-07-29T06:30:20.238Z,55.52
2022-07-29T06:33:22.849Z,56.28
2022-07-29T06:36:25.887Z,54.35
2022-07-29T06:39:28.941Z,54.61
2022-07-29T06:42:31.686Z,53.97
2022-07-29T06:45:37.236Z,52.01
2022-07-29T06:48:41.597Z,51.19
2022-07-29T06:51:44.133Z,51.16
2022-07-29T06:54:49.078Z,49.89
2022-07-29T06:57:52.308Z,50.30
2022-07-29T07:00:56.784Z,48.54
2022-07-29T07:03:59.350Z,48.61
2022-07-29T07:07:02.183Z,47.53
2022-07-29T07:10:05.447Z,46.57
2022-07-29T07:13:08.377Z,46.51
2022-07-29T07:16:11.330Z,45.89
2022-07-29T07:19:14.887Z,44.52
2022-07-29T07:22:17.366Z,43.74
2022-07-29T07:25:20.242Z,41.74
2022-07-29T07:28:25.077Z,42.19
2022-07-29T07:31:28.409Z,39.94
2022-07-29T07:34:31.164Z,38.67
2022-07-29T07:37:34.506Z,37.93
2022-07-29T07:40:37.003Z,37.54
2022-07-29T07:43:41.119Z,37.28
2022-07-29T07:46:45.875Z,37.22
2022-07-29T07:49:48.688Z,37.04
2022-07-29T07:52:53.733Z,36.46
2022-07-29T07:56:12.974Z,34.86
2022-07-29T07:59:15.702Z,35.79
2022-07-29T08:02:18.695Z,34.24
2022-07-29T08:05:21.784Z,34.05
2022-07-29T08:08:24.404Z,35.92
2022-07-29T08:11:27.531Z,33.13
2022-07-29T08:14:32.015Z,32.29
2022-07-29T08:17:35.411Z,31.14
2022-07-29T08:20:39.896Z,30.19
2022-07-29T08:23:53.164Z,30.76
2022-07-29T08:27:01.378Z,31.64
2022-07-29T08:30:05.769Z,29.62
2022-07-29T08:33:08.374Z,28.78
2022-07-29T08:36:11.199Z,27.65
2022-07-29T08:39:13.682Z,26.64
2022-07-29T08:42:17.899Z,26.04
2022-07-29T08:45:22.938Z,27.54
2022-07-29T08:48:26.193Z,27.07
2022-07-29T08:51:29.292Z,26.78
2022-07-29T08:54:33.338Z,25.58
2022-07-29T08:57:37.402Z,25.47
2022-07-29T09:00:44.591Z,25.22
2022-07-29T09:03:48.417Z,25.84
2022-07-29T09:06:55.431Z,24.03
2022-07-29T09:09:58.140Z,24.54
2022-07-29T09:13:01.002Z,23.04
2022-07-29T09:16:08.916Z,22.35
2022-07-29T09:19:24.997Z,23.19
2022-07-29T09:22:37.671Z,23.69
2022-07-29T09:25:43.150Z,23.95
2022-07-29T09:28:45.638Z,22.95
2022-07-29T09:31:50.714Z,21.79
2022-07-29T09:35:20.285Z,21.58
2022-07-29T09:38:23.314Z,20.46
2022-07-29T09:41:26.327Z,19.88
2022-07-29T09:44:44.756Z,23.58
2022-07-29T09:47:50.386Z,22.46
2022-07-29T09:50:53.558Z,20.80
2022-07-29T09:53:56.108Z,20.09
2022-07-29T09:56:58.958Z,18.85
2022-07-29T10:00:10.775Z,19.76
2022-07-29T10:03:16.671Z,19.27
2022-07-29T10:06:19.884Z,21.48
2022-07-29T10:09:22.643Z,21.64
2022-07-29T10:12:25.700Z,21.41
2022-07-29T10:15:31.317Z,20.63
2022-07-29T10:18:34.962Z,19.52
2022-07-29T10:21:43.590Z,20.91
2022-07-29T10:24:46.742Z,22.99
2022-07-29T10:27:52.074Z,23.32
2022-07-29T10:31:02.838Z,21.60
2022-07-29T10:34:18.191Z,20.04
2022-07-29T10:37:25.090Z,19.01
2022-07-29T10:40:57.325Z,19.49
2022-07-29T10:44:14.759Z,20.29
2022-07-29T10:47:27.506Z,23.21
2022-07-29T10:50:54.231Z,25.61
2022-07-29T10:54:00.765Z,25.27
2022-07-29T10:57:15.968Z,25.86
2022-07-29T11:00:18.449Z,27.33
2022-07-29T11:03:49.292Z,25.66
2022-07-29T11:07:04.028Z,23.46
2022-07-29T11:10:16.458Z,23.33
2022-07-29T11:13:44.151Z,23.86
2022-07-29T11:17:05.981Z,19.87
2022-07-29T11:20:34.229Z,17.48
2022-07-29T11:23:42.818Z,17.28
2022-07-29T11:26:46.449Z,15.10
2022-07-29T11:29:57.361Z,13.81
2022-07-29T11:33:01.435Z,14.93
2022-07-29T11:36:16.796Z,14.97
2022-07-29T11:39:27.049Z,14.66
2022-07-29T11:42:42.112Z,15.60
2022-07-29T11:45:47.325Z,15.77
2022-07-29T11:48:50.227Z,17.56
2022-07-29T11:51:56.847Z,16.02
2022-07-29T11:55:09.886Z,14.03
2022-07-29T11:58:13.192Z,14.82
2022-07-29T12:01:18.408Z,13.46
2022-07-29T12:04:21.543Z,12.43
2022-07-29T12:07:32.571Z,12.54
2022-07-29T12:10:39.094Z,13.05
2022-07-29T12:13:41.647Z,12.41
2022-07-29T12:16:44.510Z,14.32
2022-07-29T12:19:47.221Z,13.20
2022-07-29T12:22:54.834Z,13.09
2022-07-29T12:25:59.149Z,13.39
2022-07-29T12:29:03.208Z,13.02
2022-07-29T12:32:14.416Z,13.89
2022-07-29T12:35:22.159Z,13.35
2022-07-29T12:38:24.705Z,12.01
2022-07-29T12:41:30.135Z,11.00
2022-07-29T12:44:50.077Z,10.72
2022-07-29T12:47:53.536Z,12.45
2022-07-29T12:51:02.261Z,12.65
2022-07-29T12:54:11.644Z,12.32
2022-07-29T12:57:20.186Z,12.04
2022-07-29T13:00:25.273Z,11.29
2022-07-29T13:03:28.124Z,10.07
2022-07-29T13:06:45.885Z,12.59
2022-07-29T13:09:50.821Z,12.11
2022-07-29T13:13:07.468Z,12.67
2022-07-29T13:16:12.597Z,12.85
2022-07-29T13:19:15.438Z,10.84
2022-07-29T13:22:20.379Z,9.77
2022-07-29T13:25:31.989Z,9.68
2022-07-29T13:28:35.252Z,12.37
2022-07-29T13:31:38.087Z,12.40
2022-07-29T13:34:41.787Z,13.03
2022-07-29T13:37:44.716Z,11.73
2022-07-29T13:40:47.389Z,11.47
2022-07-29T13:43:50.226Z,11.19
2022-07-29T13:46:52.718Z,13.46
2022-07-29T13:49:56.325Z,16.36
2022-07-29T13:52:58.776Z,18.19
2022-07-29T13:56:01.724Z,21.22
2022-07-29T13:59:04.317Z,19.79
2022-07-29T14:02:07.643Z,15.03
2022-07-29T14:05:11.112Z,14.61
2022-07-29T14:08:13.715Z,14.25
2022-07-29T14:11:16.587Z,14.38
2022-07-29T14:14:19.828Z,16.58
2022-07-29T14:17:23.741Z,18.46
2022-07-29T14:20:26.939Z,20.71
2022-07-29T14:23:29.918Z,22.42
2022-07-29T14:26:32.854Z,17.55
2022-07-29T14:29:38.111Z,15.28
2022-07-29T14:32:41.250Z,14.05
2022-07-29T14:35:44.667Z,15.09
2022-07-29T14:38:47.270Z,17.66
2022-07-29T14:41:52.010Z,18.82
2022-07-29T14:44:54.777Z,19.46
2022-07-29T14:47:57.665Z,20.34
2022-07-29T14:51:04.705Z,20.30
2022-07-29T14:54:08.088Z,19.96
2022-07-29T14:57:10.666Z,19.48
2022-07-29T15:00:15.188Z,19.49
2022-07-29T15:03:23.827Z,20.02
2022-07-29T15:06:27.768Z,20.99
2022-07-29T15:09:30.323Z,22.25
2022-07-29T15:12:34.057Z,21.06
2022-07-29T15:15:36.589Z,21.77
2022-07-29T15:18:39.515Z,21.42
2022-07-29T15:21:48.066Z,20.58
2022-07-29T15:24:51.205Z,18.37
2022-07-29T15:27:55.657Z,17.69
2022-07-29T15:31:01.925Z,17.58
2022-07-29T15:34:06.334Z,17.09
2022-07-29T15:37:09.316Z,18.02
2022-07-29T15:40:12.054Z,18.69
2022-07-29T15:43:15.032Z,20.17
2022-07-29T15:46:38.400Z,20.99
2022-07-29T15:49:47.266Z,21.94
2022-07-29T15:52:51.924Z,22.52
2022-07-29T15:55:54.753Z,24.21
2022-07-29T15:59:00.156Z,23.40
2022-07-29T16:02:04.993Z,24.53
2022-07-29T16:05:09.582Z,23.95
2022-07-29T16:08:12.195Z,25.99
2022-07-29T16:11:15.039Z,25.83
2022-07-29T16:14:18.276Z,25.01
2022-07-29T16:17:21.302Z,24.40
2022-07-29T16:20:24.039Z,23.51
2022-07-29T16:23:27.094Z,23.88
2022-07-29T16:26:29.668Z,23.91
2022-07-29T16:29:32.581Z,24.43
2022-07-29T16:32:35.500Z,24.95
2022-07-29T16:35:40.379Z,24.90
2022-07-29T16:38:47.237Z,25.45
2022-07-29T16:41:50.365Z,25.71
2022-07-29T16:44:53.008Z,23.96
2022-07-29T16:48:00.154Z,24.39
2022-07-29T16:51:03.476Z,25.06
2022-07-29T16:54:06.441Z,24.85
2022-07-29T16:57:09.108Z,25.26
2022-07-29T17:00:12.900Z,25.95
2022-07-29T17:03:15.731Z,26.83
2022-07-29T17:06:18.725Z,28.21
2022-07-29T17:09:21.366Z,26.52
2022-07-29T17:12:24.794Z,26.86
2022-07-29T17:15:27.491Z,26.90
2022-07-29T17:18:31.970Z,27.49
2022-07-29T17:21:34.498Z,28.04
2022-07-29T17:24:38.241Z,27.40
2022-07-29T17:27:42.565Z,27.20
2022-07-29T17:30:45.343Z,27.31
2022-07-29T17:33:47.861Z,27.37
2022-07-29T17:36:50.838Z,27.53
2022-07-29T17:39:57.319Z,28.46
2022-07-29T17:43:04.817Z,28.19
2022-07-29T17:46:09.053Z,28.17
2022-07-29T17:49:12.260Z,28.37
2022-07-29T17:52:15.943Z,28.44
2022-07-29T17:55:18.969Z,29.18
2022-07-29T17:58:22.002Z,30.11
2022-07-29T18:01:24.967Z,30.53
2022-07-29T18:04:28.668Z,30.06
2022-07-29T18:07:31.299Z,30.00
2022-07-29T18:10:34.196Z,29.80
2022-07-29T18:13:36.700Z,30.08
2022-07-29T18:16:39.747Z,30.56
2022-07-29T18:19:42.384Z,30.60
2022-07-29T18:22:45.361Z,30.75
2022-07-29T18:25:48.020Z,31.09
2022-07-29T18:28:52.380Z,31.80
2022-07-29T18:31:55.275Z,32.94
2022-07-29T18:34:58.270Z,34.16
2022-07-29T18:38:03.088Z,36.53
2022-07-29T18:41:06.313Z,35.92
2022-07-29T18:44:10.049Z,35.26
2022-07-29T18:47:18.475Z,34.88
2022-07-29T18:50:28.867Z,34.09
2022-07-29T18:53:32.227Z,35.07
2022-07-29T18:56:39.505Z,35.70
2022-07-29T18:59:43.392Z,36.06
2022-07-29T19:02:46.090Z,36.41
2022-07-29T19:05:49.457Z,36.72
2022-07-29T19:08:52.487Z,37.08
2022-07-29T19:11:58.000Z,37.63
2022-07-29T19:15:03.601Z,38.25
2022-07-29T19:18:07.209Z,38.89
2022-07-29T19:21:09.868Z,39.46
2022-07-29T19:24:15.591Z,39.83
2022-07-29T19:27:18.891Z,40.13
2022-07-29T19:30:22.152Z,40.51
2022-07-29T19:33:24.942Z,40.42
2022-07-29T19:36:27.850Z,41.00
2022-07-29T19:39:34.981Z,41.05
2022-07-29T19:42:38.539Z,41.17
2022-07-29T19:45:41.117Z,41.61
2022-07-29T19:48:44.536Z,41.68
2022-07-29T19:51:47.338Z,41.99
2022-07-29T19:54:50.228Z,42.46
2022-07-29T19:57:52.877Z,42.77
2022-07-29T20:00:55.984Z,43.23
2022-07-29T20:03:58.891Z,43.70
2022-07-29T20:07:01.955Z,44.24
2022-07-29T20:10:06.742Z,44.62
2022-07-29T20:13:09.543Z,45.08
2022-07-29T20:16:12.642Z,45.65
2022-07-29T20:19:15.284Z,46.22
2022-07-29T20:22:21.223Z,46.47
2022-07-29T20:25:24.382Z,47.04
2022-07-29T20:28:27.623Z,47.71
2022-07-29T20:31:30.628Z,48.15
2022-07-29T20:34:33.815Z,48.73
2022-07-29T20:37:52.175Z,49.20
2022-07-29T20:40:59.162Z,49.33
2022-07-29T20:44:03.130Z,49.69
2022-07-29T20:47:06.100Z,49.92
2022-07-29T20:50:10.111Z,50.10
2022-07-29T20:53:13.619Z,50.11
2022-07-29T20:56:16.157Z,50.19
2022-07-29T20:59:19.247Z,50.32
2022-07-29T21:02:21.780Z,50.62
2022-07-29T21:05:24.788Z,51.03
2022-07-29T21:08:27.887Z,51.42
2022-07-29T21:11:44.345Z,51.74
2022-07-29T21:14:48.115Z,52.32
2022-07-29T21:17:52.727Z,53.07
2022-07-29T21:20:55.358Z,53.80
2022-07-29T21:23:58.337Z,54.28
2022-07-29T21:27:21.191Z,54.60
2022-07-29T21:30:24.766Z,55.09
2022-07-29T21:33:29.463Z,55.81
2022-07-29T21:36:48.784Z,56.35
2022-07-29T21:39:51.763Z,56.77
2022-07-29T21:42:54.737Z,57.48
2022-07-29T21:46:03.567Z,57.96
2022-07-29T21:49:06.695Z,58.36
2022-07-29T21:52:09.225Z,58.55
2022-07-29T21:55:12.269Z,58.74
2022-07-29T21:58:17.797Z,59.14
2022-07-29T22:01:20.983Z,59.47
2022-07-29T22:04:24.103Z,59.71
2022-07-29T22:07:54.059Z,59.95
2022-07-29T22:10:56.102Z,60.50
2022-07-29T22:13:58.782Z,61.14
2022-07-29T22:17:02.030Z,62.09
2022-07-29T22:20:06.087Z,62.66
2022-07-29T22:23:10.958Z,63.38
2022-07-29T22:26:13.799Z,63.61
2022-07-29T22:29:20.864Z,64.24
2022-07-29T22:32:26.736Z,64.43
2022-07-29T22:35:32.592Z,64.75
2022-07-29T22:38:35.139Z,65.26
2022-07-29T22:41:37.964Z,65.97
2022-07-29T22:44:40.545Z,66.50
2022-07-29T22:47:48.240Z,66.91
2022-07-29T22:50:51.632Z,66.96
2022-07-29T22:53:54.543Z,67.46
2022-07-29T22:56:57.357Z,67.78
2022-07-29T23:00:02.385Z,68.02
2022-07-29T23:03:06.091Z,68.23
2022-07-29T23:06:08.980Z,68.69
2022-07-29T23:09:11.529Z,68.95
2022-07-29T23:12:14.479Z,69.02
2022-07-29T23:15:17.187Z,69.47
2022-07-29T23:18:21.050Z,69.60
2022-07-29T23:21:23.700Z,70.03
2022-07-29T23:39:40.828Z,70.90
2022-07-29T23:42:44.215Z,71.76
2022-07-29T23:45:48.750Z,71.83
2022-07-29T23:48:51.948Z,72.37
2022-07-29T23:51:54.499Z,72.29
2022-07-29T23:55:36.430Z,72.29
2022-07-29T23:58:19.998Z,72.34
